sensor_id;sensor_type;location;lat;lon;timestamp;pressure;altitude;pressure_sealevel;temperature;humidity
68628;BME280;55611;48.602;9.490;2024-01-07T00:02:20;96230;;;8;57.5
68628;BME280;55611;48.602;9.490;2024-01-07T00:04:50;96230;;;8;57.5
68628;BME280;55611;48.602;9.490;2024-01-07T00:07:21;96220;;;8;57.5
68628;BME280;55611;48.602;9.490;2024-01-07T00:09:51;96230;;;7.9;57.5
68628;BME280;55611;48.602;9.490;2024-01-07T00:12:22;96230;;;7.9;57.5
68628;BME280;55611;48.602;9.490;2024-01-07T00:14:52;96230;;;8;57.5
68628;BME280;55611;48.602;9.490;2024-01-07T00:17:23;96230;;;8.1;57.5
68628;BME280;55611;48.602;9.490;2024-01-07T00:19:53;96230;;;8.1;57.5
68628;BME280;55611;48.602;9.490;2024-01-07T00:22:24;96230;;;8.1;57.5
68628;BME280;55611;48.602;9.490;2024-01-07T00:24:54;96240;;;8.1;57.5
68628;BME280;55611;48.602;9.490;2024-01-07T00:27:25;96230;;;8.2;57.5
68628;BME280;55611;48.602;9.490;2024-01-07T00:29:55;96230;;;8.1;57.5
68628;BME280;55611;48.602;9.490;2024-01-07T00:32:26;96230;;;8.1;57.5
68628;BME280;55611;48.602;9.490;2024-01-07T00:34:56;96230;;;8.1;57.5
68628;BME280;55611;48.602;9.490;2024-01-07T00:37:27;96230;;;8.1;57.5
68628;BME280;55611;48.602;9.490;2024-01-07T00:39:57;96230;;;8.1;57.5
68628;BME280;55611;48.602;9.490;2024-01-07T00:42:28;96230;;;8.1;57.5
68628;BME280;55611;48.602;9.490;2024-01-07T00:44:58;96230;;;8.1;57.5
68628;BME280;55611;48.602;9.490;2024-01-07T00:47:29;96220;;;8.1;57.5
68628;BME280;55611;48.602;9.490;2024-01-07T00:50:00;96230;;;8.1;57.5
68628;BME280;55611;48.602;9.490;2024-01-07T00:52:30;96230;;;8.1;57.5
68628;BME280;55611;48.602;9.490;2024-01-07T00:55:01;96230;;;8;57.5
68628;BME280;55611;48.602;9.490;2024-01-07T00:57:31;96230;;;8;57.5
68628;BME280;55611;48.602;9.490;2024-01-07T01:00:05;96230;;;8;57.5
68628;BME280;55611;48.602;9.490;2024-01-07T01:02:32;96230;;;8;57.5
68628;BME280;55611;48.602;9.490;2024-01-07T01:05:03;96230;;;8;57.5
68628;BME280;55611;48.602;9.490;2024-01-07T01:07:33;96230;;;8;57.5
68628;BME280;55611;48.602;9.490;2024-01-07T01:10:04;96240;;;8;57.5
68628;BME280;55611;48.602;9.490;2024-01-07T01:12:34;96240;;;8;57.5
68628;BME280;55611;48.602;9.490;2024-01-07T01:15:05;96230;;;8;57.5
68628;BME280;55611;48.602;9.490;2024-01-07T01:17:35;96240;;;8;57.5
68628;BME280;55611;48.602;9.490;2024-01-07T01:20:06;96240;;;7.9;57.5
68628;BME280;55611;48.602;9.490;2024-01-07T01:22:36;96240;;;7.9;58
68628;BME280;55611;48.602;9.490;2024-01-07T01:25:07;96250;;;7.9;58
68628;BME280;55611;48.602;9.490;2024-01-07T01:27:37;96250;;;7.9;58
68628;BME280;55611;48.602;9.490;2024-01-07T01:30:08;96240;;;7.8;58
68628;BME280;55611;48.602;9.490;2024-01-07T01:32:39;96240;;;7.8;58
68628;BME280;55611;48.602;9.490;2024-01-07T01:35:09;96240;;;7.9;58
68628;BME280;55611;48.602;9.490;2024-01-07T01:37:39;96250;;;7.9;58
68628;BME280;55611;48.602;9.490;2024-01-07T01:40:10;96250;;;7.9;58.5
68628;BME280;55611;48.602;9.490;2024-01-07T01:42:42;96250;;;8;58
68628;BME280;55611;48.602;9.490;2024-01-07T01:45:11;96250;;;8.1;58
68628;BME280;55611;48.602;9.490;2024-01-07T01:47:41;96250;;;8;58
68628;BME280;55611;48.602;9.490;2024-01-07T01:50:12;96250;;;8;58
68628;BME280;55611;48.602;9.490;2024-01-07T01:52:43;96250;;;8;58
68628;BME280;55611;48.602;9.490;2024-01-07T01:55:13;96250;;;8;57.5
68628;BME280;55611;48.602;9.490;2024-01-07T01:57:44;96250;;;8;57.5
68628;BME280;55611;48.602;9.490;2024-01-07T02:00:14;96250;;;8;57.5
68628;BME280;55611;48.602;9.490;2024-01-07T02:02:44;96240;;;8;57.5
68628;BME280;55611;48.602;9.490;2024-01-07T02:05:15;96240;;;8;57.5
68628;BME280;55611;48.602;9.490;2024-01-07T02:07:46;96250;;;8;57.5
68628;BME280;55611;48.602;9.490;2024-01-07T02:10:16;96250;;;8;57.5
68628;BME280;55611;48.602;9.490;2024-01-07T02:12:47;96250;;;7.9;57.5
68628;BME280;55611;48.602;9.490;2024-01-07T02:15:17;96240;;;7.9;57.5
68628;BME280;55611;48.602;9.490;2024-01-07T02:17:48;96240;;;7.8;58
68628;BME280;55611;48.602;9.490;2024-01-07T02:20:18;96250;;;7.8;58
68628;BME280;55611;48.602;9.490;2024-01-07T02:22:49;96240;;;7.7;58
68628;BME280;55611;48.602;9.490;2024-01-07T02:25:19;96240;;;7.7;58
68628;BME280;55611;48.602;9.490;2024-01-07T02:27:50;96250;;;7.7;58
68628;BME280;55611;48.602;9.490;2024-01-07T02:30:20;96250;;;7.7;58
68628;BME280;55611;48.602;9.490;2024-01-07T02:32:51;96250;;;7.8;58
68628;BME280;55611;48.602;9.490;2024-01-07T02:35:21;96250;;;7.8;58
68628;BME280;55611;48.602;9.490;2024-01-07T02:37:52;96250;;;7.7;58
68628;BME280;55611;48.602;9.490;2024-01-07T02:40:22;96250;;;7.6;58
68628;BME280;55611;48.602;9.490;2024-01-07T02:42:53;96250;;;7.6;58
68628;BME280;55611;48.602;9.490;2024-01-07T02:45:23;96250;;;7.5;58
68628;BME280;55611;48.602;9.490;2024-01-07T02:47:54;96250;;;7.5;58.5
68628;BME280;55611;48.602;9.490;2024-01-07T02:50:24;96250;;;7.6;58.5
68628;BME280;55611;48.602;9.490;2024-01-07T02:52:55;96250;;;7.6;58.5
68628;BME280;55611;48.602;9.490;2024-01-07T02:55:25;96250;;;7.8;58
68628;BME280;55611;48.602;9.490;2024-01-07T02:57:56;96250;;;7.9;58
68628;BME280;55611;48.602;9.490;2024-01-07T03:00:26;96250;;;8;58
68628;BME280;55611;48.602;9.490;2024-01-07T03:05:27;96250;;;7.9;58
68628;BME280;55611;48.602;9.490;2024-01-07T03:07:58;96250;;;7.8;58
68628;BME280;55611;48.602;9.490;2024-01-07T03:10:28;96250;;;7.8;58
68628;BME280;55611;48.602;9.490;2024-01-07T03:13:00;96260;;;7.7;58.5
68628;BME280;55611;48.602;9.490;2024-01-07T03:15:29;96250;;;7.6;58.5
68628;BME280;55611;48.602;9.490;2024-01-07T03:18:00;96260;;;7.6;58.5
68628;BME280;55611;48.602;9.490;2024-01-07T03:20:30;96260;;;7.7;58.5
68628;BME280;55611;48.602;9.490;2024-01-07T03:23:01;96260;;;7.7;58
68628;BME280;55611;48.602;9.490;2024-01-07T03:25:31;96260;;;7.7;58
68628;BME280;55611;48.602;9.490;2024-01-07T03:28:02;96260;;;7.7;58
68628;BME280;55611;48.602;9.490;2024-01-07T03:30:32;96260;;;7.8;58
68628;BME280;55611;48.602;9.490;2024-01-07T03:33:03;96270;;;7.8;58
68628;BME280;55611;48.602;9.490;2024-01-07T03:35:33;96270;;;7.7;58
68628;BME280;55611;48.602;9.490;2024-01-07T03:38:04;96270;;;7.7;58
68628;BME280;55611;48.602;9.490;2024-01-07T03:40:35;96270;;;7.7;58
68628;BME280;55611;48.602;9.490;2024-01-07T03:43:05;96270;;;7.7;58
68628;BME280;55611;48.602;9.490;2024-01-07T03:45:36;96270;;;7.7;58
68628;BME280;55611;48.602;9.490;2024-01-07T03:48:06;96270;;;7.7;58.5
68628;BME280;55611;48.602;9.490;2024-01-07T03:50:37;96270;;;7.6;58.5
68628;BME280;55611;48.602;9.490;2024-01-07T03:53:07;96270;;;7.6;58.5
68628;BME280;55611;48.602;9.490;2024-01-07T03:55:38;96270;;;7.7;58
68628;BME280;55611;48.602;9.490;2024-01-07T03:58:08;96270;;;7.7;58
68628;BME280;55611;48.602;9.490;2024-01-07T04:00:39;96270;;;7.7;58
68628;BME280;55611;48.602;9.490;2024-01-07T04:03:09;96280;;;7.7;58
68628;BME280;55611;48.602;9.490;2024-01-07T04:05:40;96270;;;7.7;58
68628;BME280;55611;48.602;9.490;2024-01-07T04:08:10;96270;;;7.6;58
68628;BME280;55611;48.602;9.490;2024-01-07T04:10:41;96280;;;7.6;58
68628;BME280;55611;48.602;9.490;2024-01-07T04:13:11;96280;;;7.6;58
68628;BME280;55611;48.602;9.490;2024-01-07T04:15:42;96280;;;7.6;58
68628;BME280;55611;48.602;9.490;2024-01-07T04:18:12;96280;;;7.5;58
68628;BME280;55611;48.602;9.490;2024-01-07T04:20:43;96280;;;7.5;58
68628;BME280;55611;48.602;9.490;2024-01-07T04:23:13;96280;;;7.5;58
68628;BME280;55611;48.602;9.490;2024-01-07T04:25:44;96290;;;7.5;58
68628;BME280;55611;48.602;9.490;2024-01-07T04:28:14;96280;;;7.5;58
68628;BME280;55611;48.602;9.490;2024-01-07T04:30:45;96290;;;7.5;58
68628;BME280;55611;48.602;9.490;2024-01-07T04:33:15;96290;;;7.5;58
68628;BME280;55611;48.602;9.490;2024-01-07T04:35:46;96290;;;7.4;58
68628;BME280;55611;48.602;9.490;2024-01-07T04:38:16;96290;;;7.3;58
68628;BME280;55611;48.602;9.490;2024-01-07T04:40:47;96290;;;7.3;58.5
68628;BME280;55611;48.602;9.490;2024-01-07T04:43:18;96290;;;7.3;58.5
68628;BME280;55611;48.602;9.490;2024-01-07T04:45:48;96290;;;7.2;58.5
68628;BME280;55611;48.602;9.490;2024-01-07T04:48:18;96300;;;7.2;58.5
68628;BME280;55611;48.602;9.490;2024-01-07T04:50:49;96300;;;7.3;58.5
68628;BME280;55611;48.602;9.490;2024-01-07T04:53:19;96300;;;7.3;58.5
68628;BME280;55611;48.602;9.490;2024-01-07T04:55:50;96300;;;7.3;58.5
68628;BME280;55611;48.602;9.490;2024-01-07T04:58:20;96310;;;7.2;58.5
68628;BME280;55611;48.602;9.490;2024-01-07T05:00:51;96310;;;7.3;58.5
68628;BME280;55611;48.602;9.490;2024-01-07T05:03:21;96310;;;7.2;58.5
68628;BME280;55611;48.602;9.490;2024-01-07T05:05:52;96310;;;7.2;58.5
68628;BME280;55611;48.602;9.490;2024-01-07T05:08:23;96310;;;7.1;58.5
68628;BME280;55611;48.602;9.490;2024-01-07T05:10:53;96310;;;7.1;58.5
68628;BME280;55611;48.602;9.490;2024-01-07T05:13:24;96320;;;7.2;58.5
68628;BME280;55611;48.602;9.490;2024-01-07T05:15:54;96320;;;7.2;58.5
68628;BME280;55611;48.602;9.490;2024-01-07T05:18:25;96320;;;7.3;58.5
68628;BME280;55611;48.602;9.490;2024-01-07T05:20:55;96320;;;7.3;58.5
68628;BME280;55611;48.602;9.490;2024-01-07T05:23:26;96320;;;7.4;58
68628;BME280;55611;48.602;9.490;2024-01-07T05:25:56;96320;;;7.4;58.5
68628;BME280;55611;48.602;9.490;2024-01-07T05:28:27;96330;;;7.3;58.5
68628;BME280;55611;48.602;9.490;2024-01-07T05:30:57;96330;;;7.3;58.5
68628;BME280;55611;48.602;9.490;2024-01-07T05:33:28;96330;;;7.2;58.5
68628;BME280;55611;48.602;9.490;2024-01-07T05:35:58;96330;;;7.1;58.5
68628;BME280;55611;48.602;9.490;2024-01-07T05:38:29;96340;;;7.2;58.5
68628;BME280;55611;48.602;9.490;2024-01-07T05:40:59;96340;;;7.1;58.5
68628;BME280;55611;48.602;9.490;2024-01-07T05:43:30;96340;;;7.1;58.5
68628;BME280;55611;48.602;9.490;2024-01-07T05:46:00;96340;;;7.1;58.5
68628;BME280;55611;48.602;9.490;2024-01-07T05:48:40;96340;;;7.1;58.5
68628;BME280;55611;48.602;9.490;2024-01-07T05:51:01;96340;;;7;58.5
68628;BME280;55611;48.602;9.490;2024-01-07T05:53:32;96350;;;7;58.5
68628;BME280;55611;48.602;9.490;2024-01-07T05:56:02;96350;;;6.9;59
68628;BME280;55611;48.602;9.490;2024-01-07T05:58:33;96360;;;6.9;59
68628;BME280;55611;48.602;9.490;2024-01-07T06:01:03;96360;;;6.8;59
68628;BME280;55611;48.602;9.490;2024-01-07T06:03:34;96350;;;7;58.5
68628;BME280;55611;48.602;9.490;2024-01-07T06:06:04;96350;;;7.1;58.5
68628;BME280;55611;48.602;9.490;2024-01-07T06:08:35;96350;;;7.1;58.5
68628;BME280;55611;48.602;9.490;2024-01-07T06:11:05;96350;;;7;58.5
68628;BME280;55611;48.602;9.490;2024-01-07T06:13:36;96360;;;7.1;58.5
68628;BME280;55611;48.602;9.490;2024-01-07T06:16:06;96360;;;7.1;58.5
68628;BME280;55611;48.602;9.490;2024-01-07T06:18:37;96360;;;7;58.5
68628;BME280;55611;48.602;9.490;2024-01-07T06:21:07;96370;;;7;58.5
68628;BME280;55611;48.602;9.490;2024-01-07T06:23:38;96360;;;7.1;58.5
68628;BME280;55611;48.602;9.490;2024-01-07T06:26:08;96360;;;7;59
68628;BME280;55611;48.602;9.490;2024-01-07T06:28:39;96370;;;7;59
68628;BME280;55611;48.602;9.490;2024-01-07T06:31:10;96370;;;7;59
68628;BME280;55611;48.602;9.490;2024-01-07T06:33:40;96370;;;7;58.5
68628;BME280;55611;48.602;9.490;2024-01-07T06:36:11;96380;;;7;58.5
68628;BME280;55611;48.602;9.490;2024-01-07T06:38:41;96380;;;7.1;58.5
68628;BME280;55611;48.602;9.490;2024-01-07T06:41:12;96380;;;6.9;59
68628;BME280;55611;48.602;9.490;2024-01-07T06:43:42;96380;;;6.9;59
68628;BME280;55611;48.602;9.490;2024-01-07T06:46:13;96390;;;6.8;59
68628;BME280;55611;48.602;9.490;2024-01-07T06:48:43;96390;;;6.9;59
68628;BME280;55611;48.602;9.490;2024-01-07T06:51:14;96390;;;6.9;59
68628;BME280;55611;48.602;9.490;2024-01-07T06:53:44;96400;;;6.8;59
68628;BME280;55611;48.602;9.490;2024-01-07T06:56:15;96400;;;7;59
68628;BME280;55611;48.602;9.490;2024-01-07T06:58:45;96400;;;6.9;59
68628;BME280;55611;48.602;9.490;2024-01-07T07:01:17;96410;;;6.8;59
68628;BME280;55611;48.602;9.490;2024-01-07T07:03:46;96410;;;6.8;59
68628;BME280;55611;48.602;9.490;2024-01-07T07:06:17;96410;;;6.8;59
68628;BME280;55611;48.602;9.490;2024-01-07T07:08:47;96420;;;6.7;59
68628;BME280;55611;48.602;9.490;2024-01-07T07:11:18;96420;;;6.7;59.5
68628;BME280;55611;48.602;9.490;2024-01-07T07:13:48;96420;;;6.8;59
68628;BME280;55611;48.602;9.490;2024-01-07T07:16:19;96420;;;6.9;59
68628;BME280;55611;48.602;9.490;2024-01-07T07:18:49;96420;;;6.9;59
68628;BME280;55611;48.602;9.490;2024-01-07T07:21:20;96430;;;7;59
68628;BME280;55611;48.602;9.490;2024-01-07T07:23:50;96420;;;7.1;58.5
68628;BME280;55611;48.602;9.490;2024-01-07T07:26:21;96430;;;7;58.5
68628;BME280;55611;48.602;9.490;2024-01-07T07:28:51;96430;;;7.1;58.5
68628;BME280;55611;48.602;9.490;2024-01-07T07:31:22;96440;;;7;58.5
68628;BME280;55611;48.602;9.490;2024-01-07T07:33:52;96440;;;7;58.5
68628;BME280;55611;48.602;9.490;2024-01-07T07:36:23;96440;;;7.1;58.5
68628;BME280;55611;48.602;9.490;2024-01-07T07:38:53;96450;;;7.1;58.5
68628;BME280;55611;48.602;9.490;2024-01-07T07:41:24;96440;;;7;58.5
68628;BME280;55611;48.602;9.490;2024-01-07T07:43:54;96450;;;6.9;58.5
68628;BME280;55611;48.602;9.490;2024-01-07T07:46:25;96450;;;6.9;58.5
68628;BME280;55611;48.602;9.490;2024-01-07T07:48:55;96450;;;7;58.5
68628;BME280;55611;48.602;9.490;2024-01-07T07:51:26;96460;;;6.9;58.5
68628;BME280;55611;48.602;9.490;2024-01-07T07:53:57;96450;;;6.9;58.5
68628;BME280;55611;48.602;9.490;2024-01-07T07:56:27;96460;;;6.8;58.5
68628;BME280;55611;48.602;9.490;2024-01-07T07:58:58;96460;;;6.8;58.5
68628;BME280;55611;48.602;9.490;2024-01-07T08:01:28;96460;;;6.8;58.5
68628;BME280;55611;48.602;9.490;2024-01-07T08:03:59;96470;;;6.8;58.5
68628;BME280;55611;48.602;9.490;2024-01-07T08:06:29;96470;;;6.8;59
68628;BME280;55611;48.602;9.490;2024-01-07T08:09:00;96470;;;6.9;59
68628;BME280;55611;48.602;9.490;2024-01-07T08:11:30;96470;;;6.8;59
68628;BME280;55611;48.602;9.490;2024-01-07T08:14:01;96480;;;6.9;59
68628;BME280;55611;48.602;9.490;2024-01-07T08:16:31;96480;;;6.8;59
68628;BME280;55611;48.602;9.490;2024-01-07T08:19:02;96480;;;6.7;59
68628;BME280;55611;48.602;9.490;2024-01-07T08:21:32;96480;;;6.6;59
68628;BME280;55611;48.602;9.490;2024-01-07T08:24:03;96490;;;6.6;59
68628;BME280;55611;48.602;9.490;2024-01-07T08:26:33;96490;;;6.5;59
68628;BME280;55611;48.602;9.490;2024-01-07T08:29:04;96490;;;6.5;59
68628;BME280;55611;48.602;9.490;2024-01-07T08:31:34;96490;;;6.5;59
68628;BME280;55611;48.602;9.490;2024-01-07T08:34:05;96490;;;6.6;59
68628;BME280;55611;48.602;9.490;2024-01-07T08:36:35;96490;;;6.7;58.5
68628;BME280;55611;48.602;9.490;2024-01-07T08:39:06;96500;;;6.7;58.5
68628;BME280;55611;48.602;9.490;2024-01-07T08:41:36;96500;;;6.7;58.5
68628;BME280;55611;48.602;9.490;2024-01-07T08:44:07;96500;;;6.6;58.5
68628;BME280;55611;48.602;9.490;2024-01-07T08:46:37;96510;;;6.6;58.5
68628;BME280;55611;48.602;9.490;2024-01-07T08:49:08;96510;;;6.6;58.5
68628;BME280;55611;48.602;9.490;2024-01-07T08:51:39;96520;;;6.5;59
68628;BME280;55611;48.602;9.490;2024-01-07T08:54:09;96510;;;6.5;59
68628;BME280;55611;48.602;9.490;2024-01-07T08:56:39;96520;;;6.5;59
68628;BME280;55611;48.602;9.490;2024-01-07T08:59:10;96520;;;6.5;59
68628;BME280;55611;48.602;9.490;2024-01-07T09:01:40;96520;;;6.4;59
68628;BME280;55611;48.602;9.490;2024-01-07T09:04:11;96520;;;6.5;59
68628;BME280;55611;48.602;9.490;2024-01-07T09:06:41;96520;;;6.5;59
68628;BME280;55611;48.602;9.490;2024-01-07T09:09:12;96530;;;6.5;59
68628;BME280;55611;48.602;9.490;2024-01-07T09:11:42;96520;;;6.5;59
68628;BME280;55611;48.602;9.490;2024-01-07T09:14:13;96530;;;6.5;59
68628;BME280;55611;48.602;9.490;2024-01-07T09:16:43;96530;;;6.5;59
68628;BME280;55611;48.602;9.490;2024-01-07T09:19:14;96530;;;6.4;59
68628;BME280;55611;48.602;9.490;2024-01-07T09:21:45;96530;;;6.4;59
68628;BME280;55611;48.602;9.490;2024-01-07T09:24:15;96530;;;6.4;59
68628;BME280;55611;48.602;9.490;2024-01-07T09:26:46;96540;;;6.4;59
68628;BME280;55611;48.602;9.490;2024-01-07T09:29:17;96530;;;6.4;59
68628;BME280;55611;48.602;9.490;2024-01-07T09:31:47;96540;;;6.6;59
68628;BME280;55611;48.602;9.490;2024-01-07T09:34:17;96540;;;6.6;59
68628;BME280;55611;48.602;9.490;2024-01-07T09:36:48;96550;;;6.5;59
68628;BME280;55611;48.602;9.490;2024-01-07T09:39:18;96550;;;6.5;59
68628;BME280;55611;48.602;9.490;2024-01-07T09:41:49;96550;;;6.4;59
68628;BME280;55611;48.602;9.490;2024-01-07T09:44:19;96550;;;6.4;59
68628;BME280;55611;48.602;9.490;2024-01-07T09:46:50;96550;;;6.5;59
68628;BME280;55611;48.602;9.490;2024-01-07T09:49:20;96560;;;6.5;59
68628;BME280;55611;48.602;9.490;2024-01-07T09:51:51;96550;;;6.4;59
68628;BME280;55611;48.602;9.490;2024-01-07T09:54:21;96550;;;6.5;59
68628;BME280;55611;48.602;9.490;2024-01-07T09:56:54;96560;;;6.4;59
68628;BME280;55611;48.602;9.490;2024-01-07T09:59:22;96560;;;6.2;59
68628;BME280;55611;48.602;9.490;2024-01-07T10:01:53;96560;;;6.2;59
68628;BME280;55611;48.602;9.490;2024-01-07T10:04:24;96560;;;6.1;59
68628;BME280;55611;48.602;9.490;2024-01-07T10:06:54;96570;;;6.1;59
68628;BME280;55611;48.602;9.490;2024-01-07T10:09:28;96570;;;6;59
68628;BME280;55611;48.602;9.490;2024-01-07T10:11:55;96560;;;5.9;59.5
68628;BME280;55611;48.602;9.490;2024-01-07T10:14:25;96570;;;5.9;59.5
68628;BME280;55611;48.602;9.490;2024-01-07T10:16:56;96560;;;5.9;59
68628;BME280;55611;48.602;9.490;2024-01-07T10:19:29;96560;;;5.9;59
68628;BME280;55611;48.602;9.490;2024-01-07T10:22:01;96570;;;6;59
68628;BME280;55611;48.602;9.490;2024-01-07T10:24:31;96570;;;6;59
68628;BME280;55611;48.602;9.490;2024-01-07T10:26:58;96570;;;6;59
68628;BME280;55611;48.602;9.490;2024-01-07T10:29:28;96570;;;6;59
68628;BME280;55611;48.602;9.490;2024-01-07T10:31:59;96570;;;6;59
68628;BME280;55611;48.602;9.490;2024-01-07T10:34:31;96570;;;5.9;59
68628;BME280;55611;48.602;9.490;2024-01-07T10:37:00;96570;;;6;59
68628;BME280;55611;48.602;9.490;2024-01-07T10:39:31;96570;;;6;59
68628;BME280;55611;48.602;9.490;2024-01-07T10:42:01;96580;;;6.1;59
68628;BME280;55611;48.602;9.490;2024-01-07T10:44:32;96580;;;6.1;59
68628;BME280;55611;48.602;9.490;2024-01-07T10:47:03;96580;;;6;59
68628;BME280;55611;48.602;9.490;2024-01-07T10:49:33;96580;;;6.1;59
68628;BME280;55611;48.602;9.490;2024-01-07T10:52:07;96580;;;6.1;59
68628;BME280;55611;48.602;9.490;2024-01-07T10:54:34;96580;;;6.2;59
68628;BME280;55611;48.602;9.490;2024-01-07T10:57:13;96580;;;6;59
68628;BME280;55611;48.602;9.490;2024-01-07T10:59:35;96580;;;6;59
68628;BME280;55611;48.602;9.490;2024-01-07T11:02:05;96580;;;5.9;59
68628;BME280;55611;48.602;9.490;2024-01-07T11:04:43;96580;;;5.8;59
68628;BME280;55611;48.602;9.490;2024-01-07T11:09:43;96580;;;5.8;59
68628;BME280;55611;48.602;9.490;2024-01-07T11:12:07;96580;;;5.9;59
68628;BME280;55611;48.602;9.490;2024-01-07T11:14:38;96590;;;5.9;59
68628;BME280;55611;48.602;9.490;2024-01-07T11:17:08;96580;;;5.8;59
68628;BME280;55611;48.602;9.490;2024-01-07T11:19:48;96580;;;5.8;59
68628;BME280;55611;48.602;9.490;2024-01-07T11:22:25;96580;;;5.7;59.5
68628;BME280;55611;48.602;9.490;2024-01-07T11:24:40;96580;;;5.8;59
68628;BME280;55611;48.602;9.490;2024-01-07T11:27:10;96580;;;5.8;59
68628;BME280;55611;48.602;9.490;2024-01-07T11:29:41;96580;;;5.7;59
68628;BME280;55611;48.602;9.490;2024-01-07T11:32:12;96580;;;5.8;59
68628;BME280;55611;48.602;9.490;2024-01-07T11:34:42;96580;;;5.9;59
68628;BME280;55611;48.602;9.490;2024-01-07T11:37:13;96580;;;5.9;59
68628;BME280;55611;48.602;9.490;2024-01-07T11:39:44;96580;;;5.9;59
68628;BME280;55611;48.602;9.490;2024-01-07T11:42:14;96580;;;5.9;59
68628;BME280;55611;48.602;9.490;2024-01-07T11:44:46;96580;;;5.9;59
68628;BME280;55611;48.602;9.490;2024-01-07T11:47:15;96580;;;5.8;59
68628;BME280;55611;48.602;9.490;2024-01-07T11:49:45;96580;;;5.8;59
68628;BME280;55611;48.602;9.490;2024-01-07T11:52:15;96580;;;5.7;59
68628;BME280;55611;48.602;9.490;2024-01-07T11:54:47;96580;;;5.7;59
68628;BME280;55611;48.602;9.490;2024-01-07T11:57:16;96580;;;5.7;59
68628;BME280;55611;48.602;9.490;2024-01-07T11:59:47;96590;;;5.7;59
68628;BME280;55611;48.602;9.490;2024-01-07T12:02:19;96590;;;5.7;59
68628;BME280;55611;48.602;9.490;2024-01-07T12:04:48;96590;;;5.7;59
68628;BME280;55611;48.602;9.490;2024-01-07T12:07:19;96590;;;5.7;59
68628;BME280;55611;48.602;9.490;2024-01-07T12:09:55;96590;;;5.6;59
68628;BME280;55611;48.602;9.490;2024-01-07T12:12:20;96600;;;5.5;59
68628;BME280;55611;48.602;9.490;2024-01-07T12:14:50;96600;;;5.6;59
68628;BME280;55611;48.602;9.490;2024-01-07T12:17:21;96600;;;5.6;59
68628;BME280;55611;48.602;9.490;2024-01-07T12:19:51;96600;;;5.5;59
68628;BME280;55611;48.602;9.490;2024-01-07T12:22:22;96600;;;5.5;59
68628;BME280;55611;48.602;9.490;2024-01-07T12:25:00;96600;;;5.4;59
68628;BME280;55611;48.602;9.490;2024-01-07T12:27:23;96600;;;5.3;59.5
68628;BME280;55611;48.602;9.490;2024-01-07T12:29:55;96600;;;5.4;59
68628;BME280;55611;48.602;9.490;2024-01-07T12:32:26;96600;;;5.4;59
68628;BME280;55611;48.602;9.490;2024-01-07T12:34:56;96600;;;5.4;59
68628;BME280;55611;48.602;9.490;2024-01-07T12:37:26;96600;;;5.4;59
68628;BME280;55611;48.602;9.490;2024-01-07T12:39:55;96600;;;5.3;59
68628;BME280;55611;48.602;9.490;2024-01-07T12:42:26;96610;;;5.2;59
68628;BME280;55611;48.602;9.490;2024-01-07T12:44:56;96610;;;5.3;59
68628;BME280;55611;48.602;9.490;2024-01-07T12:47:27;96610;;;5.2;59
68628;BME280;55611;48.602;9.490;2024-01-07T12:49:57;96610;;;4.9;59.5
68628;BME280;55611;48.602;9.490;2024-01-07T12:52:28;96610;;;5;59.5
68628;BME280;55611;48.602;9.490;2024-01-07T12:54:58;96610;;;5;59.5
68628;BME280;55611;48.602;9.490;2024-01-07T12:57:29;96610;;;5;59.5
68628;BME280;55611;48.602;9.490;2024-01-07T12:59:59;96620;;;5;59.5
68628;BME280;55611;48.602;9.490;2024-01-07T13:02:30;96630;;;4.9;59.5
68628;BME280;55611;48.602;9.490;2024-01-07T13:05:00;96630;;;4.9;59.5
68628;BME280;55611;48.602;9.490;2024-01-07T13:07:31;96630;;;5;59
68628;BME280;55611;48.602;9.490;2024-01-07T13:10:01;96630;;;5;59
68628;BME280;55611;48.602;9.490;2024-01-07T13:12:32;96630;;;5;59
68628;BME280;55611;48.602;9.490;2024-01-07T13:15:03;96630;;;5;59
68628;BME280;55611;48.602;9.490;2024-01-07T13:17:33;96640;;;4.9;59
68628;BME280;55611;48.602;9.490;2024-01-07T13:20:04;96630;;;4.7;59
68628;BME280;55611;48.602;9.490;2024-01-07T13:22:34;96640;;;4.7;59
68628;BME280;55611;48.602;9.490;2024-01-07T13:25:05;96640;;;4.8;59
68628;BME280;55611;48.602;9.490;2024-01-07T13:27:35;96650;;;4.9;59
68628;BME280;55611;48.602;9.490;2024-01-07T13:30:06;96650;;;4.8;59
68628;BME280;55611;48.602;9.490;2024-01-07T13:32:36;96670;;;4.8;59
68628;BME280;55611;48.602;9.490;2024-01-07T13:35:07;96660;;;4.6;59
68628;BME280;55611;48.602;9.490;2024-01-07T13:37:37;96670;;;4.6;59
68628;BME280;55611;48.602;9.490;2024-01-07T13:40:08;96660;;;4.5;59.5
68628;BME280;55611;48.602;9.490;2024-01-07T13:42:38;96670;;;4.6;59
68628;BME280;55611;48.602;9.490;2024-01-07T13:45:09;96670;;;4.7;59
68628;BME280;55611;48.602;9.490;2024-01-07T13:47:39;96670;;;4.7;59
68628;BME280;55611;48.602;9.490;2024-01-07T13:50:10;96680;;;4.6;59
68628;BME280;55611;48.602;9.490;2024-01-07T13:52:40;96680;;;4.7;59
68628;BME280;55611;48.602;9.490;2024-01-07T13:55:11;96680;;;4.6;59
68628;BME280;55611;48.602;9.490;2024-01-07T13:57:41;96690;;;4.4;59
68628;BME280;55611;48.602;9.490;2024-01-07T14:00:12;96690;;;4.3;59
68628;BME280;55611;48.602;9.490;2024-01-07T14:02:42;96690;;;4.3;59
68628;BME280;55611;48.602;9.490;2024-01-07T14:05:13;96690;;;4.4;59
68628;BME280;55611;48.602;9.490;2024-01-07T14:07:43;96690;;;4.5;59
68628;BME280;55611;48.602;9.490;2024-01-07T14:10:14;96700;;;4.6;59
68628;BME280;55611;48.602;9.490;2024-01-07T14:12:44;96700;;;4.4;59
68628;BME280;55611;48.602;9.490;2024-01-07T14:15:15;96710;;;4.3;59
68628;BME280;55611;48.602;9.490;2024-01-07T14:17:45;96710;;;4.4;59
68628;BME280;55611;48.602;9.490;2024-01-07T14:20:16;96710;;;4.4;59
68628;BME280;55611;48.602;9.490;2024-01-07T14:22:46;96720;;;4.4;59
68628;BME280;55611;48.602;9.490;2024-01-07T14:25:17;96720;;;4.3;59
68628;BME280;55611;48.602;9.490;2024-01-07T14:27:47;96720;;;4.1;59
68628;BME280;55611;48.602;9.490;2024-01-07T14:30:18;96720;;;4.1;59
68628;BME280;55611;48.602;9.490;2024-01-07T14:32:48;96720;;;4.1;59
68628;BME280;55611;48.602;9.490;2024-01-07T14:35:19;96730;;;4.1;59
68628;BME280;55611;48.602;9.490;2024-01-07T14:37:49;96730;;;4.1;59
68628;BME280;55611;48.602;9.490;2024-01-07T14:40:20;96740;;;4.1;59
68628;BME280;55611;48.602;9.490;2024-01-07T14:42:50;96740;;;4;59
68628;BME280;55611;48.602;9.490;2024-01-07T14:45:21;96740;;;4;59
68628;BME280;55611;48.602;9.490;2024-01-07T14:47:51;96740;;;4;59
68628;BME280;55611;48.602;9.490;2024-01-07T14:50:22;96740;;;4.1;59
68628;BME280;55611;48.602;9.490;2024-01-07T14:52:52;96740;;;4.1;59